sensor_id;sensor_type;location;lat;lon;timestamp;temperature;humidity
3816;DHT22;1923;48.154;11.536;2022-11-14T00:01:23;7.00;99.90
3816;DHT22;1923;48.154;11.536;2022-11-14T00:03:51;6.90;99.90
3816;DHT22;1923;48.154;11.536;2022-11-14T00:06:20;6.90;99.90
3816;DHT22;1923;48.154;11.536;2022-11-14T00:08:48;6.90;99.90
3816;DHT22;1923;48.154;11.536;2022-11-14T00:11:16;7.00;99.90
3816;DHT22;1923;48.154;11.536;2022-11-14T00:13:45;6.90;99.90
3816;DHT22;1923;48.154;11.536;2022-11-14T00:16:13;6.90;99.90
3816;DHT22;1923;48.154;11.536;2022-11-14T00:18:41;6.80;99.90
3816;DHT22;1923;48.154;11.536;2022-11-14T00:21:09;6.80;99.90
3816;DHT22;1923;48.154;11.536;2022-11-14T00:23:38;6.70;99.90
3816;DHT22;1923;48.154;11.536;2022-11-14T00:26:06;6.70;99.90
3816;DHT22;1923;48.154;11.536;2022-11-14T00:28:34;6.70;99.90
3816;DHT22;1923;48.154;11.536;2022-11-14T00:31:02;6.80;99.90
3816;DHT22;1923;48.154;11.536;2022-11-14T00:33:30;6.90;99.90
3816;DHT22;1923;48.154;11.536;2022-11-14T00:35:58;6.90;99.90
3816;DHT22;1923;48.154;11.536;2022-11-14T00:38:26;7.00;99.90
3816;DHT22;1923;48.154;11.536;2022-11-14T00:40:56;7.00;99.90
3816;DHT22;1923;48.154;11.536;2022-11-14T00:43:24;6.90;99.90
3816;DHT22;1923;48.154;11.536;2022-11-14T00:45:52;6.40;99.90
3816;DHT22;1923;48.154;11.536;2022-11-14T00:48:20;6.50;99.90
3816;DHT22;1923;48.154;11.536;2022-11-14T00:50:48;6.50;99.90
3816;DHT22;1923;48.154;11.536;2022-11-14T00:53:16;6.60;99.90
3816;DHT22;1923;48.154;11.536;2022-11-14T00:55:44;6.60;99.90
3816;DHT22;1923;48.154;11.536;2022-11-14T00:58:14;6.50;99.90
3816;DHT22;1923;48.154;11.536;2022-11-14T01:00:42;6.50;99.90
3816;DHT22;1923;48.154;11.536;2022-11-14T01:03:10;6.30;99.90
3816;DHT22;1923;48.154;11.536;2022-11-14T08:52:52;12.80;99.90
3816;DHT22;1923;48.154;11.536;2022-11-14T08:55:20;14.60;99.90
3816;DHT22;1923;48.154;11.536;2022-11-14T08:57:48;14.00;99.90
3816;DHT22;1923;48.154;11.536;2022-11-14T09:00:20;13.50;99.90
3816;DHT22;1923;48.154;11.536;2022-11-14T09:02:48;13.30;99.90
3816;DHT22;1923;48.154;11.536;2022-11-14T09:05:16;13.70;99.90
3816;DHT22;1923;48.154;11.536;2022-11-14T09:07:44;14.40;99.90
3816;DHT22;1923;48.154;11.536;2022-11-14T09:10:14;15.10;99.90
3816;DHT22;1923;48.154;11.536;2022-11-14T09:12:42;15.50;99.90
3816;DHT22;1923;48.154;11.536;2022-11-14T09:15:10;15.80;99.90
3816;DHT22;1923;48.154;11.536;2022-11-14T09:17:39;15.90;99.90
3816;DHT22;1923;48.154;11.536;2022-11-14T09:20:08;15.70;99.90
3816;DHT22;1923;48.154;11.536;2022-11-14T09:22:37;15.50;99.90
3816;DHT22;1923;48.154;11.536;2022-11-14T09:25:07;15.40;99.90
3816;DHT22;1923;48.154;11.536;2022-11-14T09:27:37;15.30;99.90
3816;DHT22;1923;48.154;11.536;2022-11-14T09:30:07;15.30;99.90
3816;DHT22;1923;48.154;11.536;2022-11-14T09:32:35;15.40;99.90
3816;DHT22;1923;48.154;11.536;2022-11-14T09:35:03;15.70;99.90
3816;DHT22;1923;48.154;11.536;2022-11-14T09:37:31;15.60;99.90
3816;DHT22;1923;48.154;11.536;2022-11-14T09:39:59;15.50;99.90
3816;DHT22;1923;48.154;11.536;2022-11-14T09:42:44;15.50;99.90
3816;DHT22;1923;48.154;11.536;2022-11-14T09:45:18;16.20;99.90
3816;DHT22;1923;48.154;11.536;2022-11-14T09:47:47;17.10;99.90
3816;DHT22;1923;48.154;11.536;2022-11-14T09:50:19;17.80;99.90
3816;DHT22;1923;48.154;11.536;2022-11-14T09:52:54;18.50;99.90
3816;DHT22;1923;48.154;11.536;2022-11-14T09:55:27;18.60;99.90
3816;DHT22;1923;48.154;11.536;2022-11-14T09:58:07;18.90;99.90
3816;DHT22;1923;48.154;11.536;2022-11-14T10:00:45;20.10;99.90
3816;DHT22;1923;48.154;11.536;2022-11-14T10:03:18;21.40;99.90
3816;DHT22;1923;48.154;11.536;2022-11-14T10:06:01;22.60;97.70
3816;DHT22;1923;48.154;11.536;2022-11-14T10:08:46;23.60;95.30
3816;DHT22;1923;48.154;11.536;2022-11-14T10:11:21;23.90;94.10
3816;DHT22;1923;48.154;11.536;2022-11-14T10:14:15;23.90;92.90
3816;DHT22;1923;48.154;11.536;2022-11-14T10:16:52;23.60;92.50
3816;DHT22;1923;48.154;11.536;2022-11-14T10:19:30;23.50;91.90
3816;DHT22;1923;48.154;11.536;2022-11-14T10:22:14;24.50;91.10
3816;DHT22;1923;48.154;11.536;2022-11-14T10:27:41;24.30;87.80
3816;DHT22;1923;48.154;11.536;2022-11-14T10:30:22;24.50;87.50
3816;DHT22;1923;48.154;11.536;2022-11-14T10:33:05;24.20;88.80
3816;DHT22;1923;48.154;11.536;2022-11-14T10:35:39;24.30;86.80
3816;DHT22;1923;48.154;11.536;2022-11-14T10:38:12;24.60;87.60
3816;DHT22;1923;48.154;11.536;2022-11-14T10:40:44;24.60;86.10
3816;DHT22;1923;48.154;11.536;2022-11-14T10:43:22;24.90;84.40
3816;DHT22;1923;48.154;11.536;2022-11-14T10:45:55;24.50;83.70
3816;DHT22;1923;48.154;11.536;2022-11-14T10:48:31;24.00;84.70
3816;DHT22;1923;48.154;11.536;2022-11-14T10:51:02;24.50;84.10
3816;DHT22;1923;48.154;11.536;2022-11-14T10:53:42;25.10;83.10
3816;DHT22;1923;48.154;11.536;2022-11-14T10:56:12;25.10;81.60
3816;DHT22;1923;48.154;11.536;2022-11-14T10:58:41;24.50;82.30
3816;DHT22;1923;48.154;11.536;2022-11-14T11:01:37;24.90;81.20
3816;DHT22;1923;48.154;11.536;2022-11-14T11:04:20;25.00;80.90
3816;DHT22;1923;48.154;11.536;2022-11-14T11:06:50;25.00;80.00
3816;DHT22;1923;48.154;11.536;2022-11-14T11:09:19;24.10;81.40
3816;DHT22;1923;48.154;11.536;2022-11-14T11:12:15;21.80;84.40
3816;DHT22;1923;48.154;11.536;2022-11-14T11:14:45;19.40;90.50
3816;DHT22;1923;48.154;11.536;2022-11-14T11:17:17;17.90;92.70
3816;DHT22;1923;48.154;11.536;2022-11-14T11:19:47;16.70;95.60
3816;DHT22;1923;48.154;11.536;2022-11-14T11:22:28;15.50;98.00
3816;DHT22;1923;48.154;11.536;2022-11-14T11:24:56;14.60;99.90
3816;DHT22;1923;48.154;11.536;2022-11-14T11:27:26;14.00;99.90
3816;DHT22;1923;48.154;11.536;2022-11-14T11:30:04;13.60;99.90
3816;DHT22;1923;48.154;11.536;2022-11-14T11:32:34;13.20;99.90
3816;DHT22;1923;48.154;11.536;2022-11-14T11:35:09;12.80;99.90
3816;DHT22;1923;48.154;11.536;2022-11-14T11:37:42;12.20;99.90
3816;DHT22;1923;48.154;11.536;2022-11-14T11:40:16;12.00;99.90
3816;DHT22;1923;48.154;11.536;2022-11-14T11:42:48;11.90;99.90
3816;DHT22;1923;48.154;11.536;2022-11-14T11:45:39;11.70;99.90
3816;DHT22;1923;48.154;11.536;2022-11-14T11:48:13;11.60;99.90
3816;DHT22;1923;48.154;11.536;2022-11-14T11:50:43;11.70;99.90
3816;DHT22;1923;48.154;11.536;2022-11-14T11:53:15;11.70;99.90
3816;DHT22;1923;48.154;11.536;2022-11-14T11:55:46;11.60;99.90
3816;DHT22;1923;48.154;11.536;2022-11-14T11:58:20;11.50;99.90
3816;DHT22;1923;48.154;11.536;2022-11-14T12:00:51;11.40;99.90
3816;DHT22;1923;48.154;11.536;2022-11-14T12:03:23;11.40;99.90
3816;DHT22;1923;48.154;11.536;2022-11-14T12:06:01;11.20;99.90
3816;DHT22;1923;48.154;11.536;2022-11-14T12:08:36;11.30;99.90
3816;DHT22;1923;48.154;11.536;2022-11-14T12:11:09;11.40;99.90
3816;DHT22;1923;48.154;11.536;2022-11-14T12:13:58;11.30;99.90
3816;DHT22;1923;48.154;11.536;2022-11-14T12:16:45;11.50;99.90
3816;DHT22;1923;48.154;11.536;2022-11-14T12:19:50;11.50;99.90
3816;DHT22;1923;48.154;11.536;2022-11-14T12:22:47;11.60;99.90
3816;DHT22;1923;48.154;11.536;2022-11-14T12:25:47;11.70;99.90
3816;DHT22;1923;48.154;11.536;2022-11-14T12:28:31;11.70;99.90
3816;DHT22;1923;48.154;11.536;2022-11-14T12:31:04;11.70;99.90
3816;DHT22;1923;48.154;11.536;2022-11-14T12:33:34;11.60;99.90
3816;DHT22;1923;48.154;11.536;2022-11-14T12:36:08;11.80;99.90
3816;DHT22;1923;48.154;11.536;2022-11-14T12:38:42;11.90;99.90
3816;DHT22;1923;48.154;11.536;2022-11-14T12:41:19;11.90;99.90
3816;DHT22;1923;48.154;11.536;2022-11-14T12:43:50;11.80;99.90
3816;DHT22;1923;48.154;11.536;2022-11-14T12:46:19;12.00;99.90
3816;DHT22;1923;48.154;11.536;2022-11-14T12:48:47;12.00;99.90
3816;DHT22;1923;48.154;11.536;2022-11-14T12:54:42;12.00;99.90
3816;DHT22;1923;48.154;11.536;2022-11-14T12:57:18;11.90;99.90
3816;DHT22;1923;48.154;11.536;2022-11-14T13:00:10;12.00;99.90
3816;DHT22;1923;48.154;11.536;2022-11-14T13:02:52;11.90;99.90
3816;DHT22;1923;48.154;11.536;2022-11-14T13:05:53;11.90;99.90
3816;DHT22;1923;48.154;11.536;2022-11-14T13:08:40;12.00;99.90
3816;DHT22;1923;48.154;11.536;2022-11-14T13:11:35;12.20;99.90
3816;DHT22;1923;48.154;11.536;2022-11-14T13:14:22;12.20;99.90
3816;DHT22;1923;48.154;11.536;2022-11-14T13:17:23;12.30;99.90
3816;DHT22;1923;48.154;11.536;2022-11-14T13:20:30;12.30;99.90
3816;DHT22;1923;48.154;11.536;2022-11-14T13:23:55;12.30;99.90
3816;DHT22;1923;48.154;11.536;2022-11-14T13:26:50;12.50;99.90
3816;DHT22;1923;48.154;11.536;2022-11-14T13:29:47;12.60;99.90
3816;DHT22;1923;48.154;11.536;2022-11-14T13:35:49;12.80;99.90
3816;DHT22;1923;48.154;11.536;2022-11-14T13:48:17;12.70;99.90
3816;DHT22;1923;48.154;11.536;2022-11-14T13:50:51;12.90;99.90
3816;DHT22;1923;48.154;11.536;2022-11-14T13:53:22;12.90;99.90
3816;DHT22;1923;48.154;11.536;2022-11-14T13:55:55;12.90;99.90
3816;DHT22;1923;48.154;11.536;2022-11-14T13:58:45;12.90;99.90
3816;DHT22;1923;48.154;11.536;2022-11-14T14:01:25;12.80;99.90
3816;DHT22;1923;48.154;11.536;2022-11-14T14:04:16;12.70;99.90
3816;DHT22;1923;48.154;11.536;2022-11-14T14:06:56;12.70;99.90
3816;DHT22;1923;48.154;11.536;2022-11-14T14:09:33;12.70;99.90
3816;DHT22;1923;48.154;11.536;2022-11-14T14:12:19;12.80;99.90
3816;DHT22;1923;48.154;11.536;2022-11-14T14:15:03;12.90;99.90
3816;DHT22;1923;48.154;11.536;2022-11-14T14:17:43;13.00;99.90
3816;DHT22;1923;48.154;11.536;2022-11-14T14:20:27;12.90;99.90
3816;DHT22;1923;48.154;11.536;2022-11-14T14:23:01;12.90;99.90
3816;DHT22;1923;48.154;11.536;2022-11-14T14:25:39;13.00;99.90
3816;DHT22;1923;48.154;11.536;2022-11-14T14:28:16;12.90;99.90
3816;DHT22;1923;48.154;11.536;2022-11-14T14:31:09;12.90;99.90
3816;DHT22;1923;48.154;11.536;2022-11-14T14:33:39;12.80;99.90
3816;DHT22;1923;48.154;11.536;2022-11-14T14:36:21;12.70;99.90
3816;DHT22;1923;48.154;11.536;2022-11-14T14:38:49;12.50;99.90
3816;DHT22;1923;48.154;11.536;2022-11-14T14:41:19;12.50;99.90
3816;DHT22;1923;48.154;11.536;2022-11-14T14:43:52;12.60;99.90
3816;DHT22;1923;48.154;11.536;2022-11-14T14:46:29;12.60;99.90
3816;DHT22;1923;48.154;11.536;2022-11-14T14:49:00;12.50;99.90
3816;DHT22;1923;48.154;11.536;2022-11-14T14:51:32;12.40;99.90
3816;DHT22;1923;48.154;11.536;2022-11-14T14:54:01;12.30;99.90
3816;DHT22;1923;48.154;11.536;2022-11-14T14:56:29;12.30;99.90
3816;DHT22;1923;48.154;11.536;2022-11-14T14:58:57;12.20;99.90
3816;DHT22;1923;48.154;11.536;2022-11-14T15:01:31;12.30;99.90
3816;DHT22;1923;48.154;11.536;2022-11-14T15:04:02;12.30;99.90
3816;DHT22;1923;48.154;11.536;2022-11-14T15:06:34;12.20;99.90
3816;DHT22;1923;48.154;11.536;2022-11-14T15:09:08;12.20;99.90
3816;DHT22;1923;48.154;11.536;2022-11-14T15:11:45;12.10;99.90
3816;DHT22;1923;48.154;11.536;2022-11-14T15:14:17;12.10;99.90
3816;DHT22;1923;48.154;11.536;2022-11-14T15:16:46;12.00;99.90
3816;DHT22;1923;48.154;11.536;2022-11-14T15:19:19;12.00;99.90
3816;DHT22;1923;48.154;11.536;2022-11-14T15:22:00;11.90;99.90
3816;DHT22;1923;48.154;11.536;2022-11-14T15:24:30;11.90;99.90
3816;DHT22;1923;48.154;11.536;2022-11-14T15:27:02;11.90;99.90
3816;DHT22;1923;48.154;11.536;2022-11-14T15:29:31;11.70;99.90
3816;DHT22;1923;48.154;11.536;2022-11-14T15:32:00;11.70;99.90
3816;DHT22;1923;48.154;11.536;2022-11-14T15:34:30;11.80;99.90
3816;DHT22;1923;48.154;11.536;2022-11-14T15:37:21;11.60;99.90
3816;DHT22;1923;48.154;11.536;2022-11-14T15:39:49;11.60;99.90
3816;DHT22;1923;48.154;11.536;2022-11-14T15:42:19;11.50;99.90
3816;DHT22;1923;48.154;11.536;2022-11-14T15:44:48;11.50;99.90
3816;DHT22;1923;48.154;11.536;2022-11-14T15:47:21;11.50;99.90
3816;DHT22;1923;48.154;11.536;2022-11-14T15:49:57;11.40;99.90
3816;DHT22;1923;48.154;11.536;2022-11-14T15:52:32;11.20;99.90
3816;DHT22;1923;48.154;11.536;2022-11-14T15:55:01;11.20;99.90
3816;DHT22;1923;48.154;11.536;2022-11-14T15:57:30;11.10;99.90
3816;DHT22;1923;48.154;11.536;2022-11-14T15:59:59;11.10;99.90
3816;DHT22;1923;48.154;11.536;2022-11-14T16:02:28;11.00;99.90
3816;DHT22;1923;48.154;11.536;2022-11-14T16:04:59;10.80;99.90
3816;DHT22;1923;48.154;11.536;2022-11-14T16:07:29;10.80;99.90
3816;DHT22;1923;48.154;11.536;2022-11-14T16:09:57;10.80;99.90
3816;DHT22;1923;48.154;11.536;2022-11-14T16:12:25;10.80;99.90
3816;DHT22;1923;48.154;11.536;2022-11-14T16:14:53;10.80;99.90
3816;DHT22;1923;48.154;11.536;2022-11-14T16:17:21;10.70;99.90
3816;DHT22;1923;48.154;11.536;2022-11-14T16:19:49;10.80;99.90
3816;DHT22;1923;48.154;11.536;2022-11-14T16:22:17;10.80;99.90
3816;DHT22;1923;48.154;11.536;2022-11-14T16:24:46;10.80;99.90
3816;DHT22;1923;48.154;11.536;2022-11-14T16:27:14;10.80;99.90
3816;DHT22;1923;48.154;11.536;2022-11-14T16:29:42;10.70;99.90
3816;DHT22;1923;48.154;11.536;2022-11-14T16:32:11;10.70;99.90
3816;DHT22;1923;48.154;11.536;2022-11-14T16:34:39;10.70;99.90
3816;DHT22;1923;48.154;11.536;2022-11-14T16:37:11;10.70;99.90
3816;DHT22;1923;48.154;11.536;2022-11-14T16:39:39;10.70;99.90
3816;DHT22;1923;48.154;11.536;2022-11-14T16:42:09;10.60;99.90
3816;DHT22;1923;48.154;11.536;2022-11-14T16:44:38;10.60;99.90
3816;DHT22;1923;48.154;11.536;2022-11-14T16:47:13;10.60;99.90
3816;DHT22;1923;48.154;11.536;2022-11-14T16:49:41;10.40;99.90
3816;DHT22;1923;48.154;11.536;2022-11-14T16:52:09;10.40;99.90
3816;DHT22;1923;48.154;11.536;2022-11-14T16:54:38;10.50;99.90
3816;DHT22;1923;48.154;11.536;2022-11-14T16:57:06;10.50;99.90
3816;DHT22;1923;48.154;11.536;2022-11-14T16:59:36;10.50;99.90
3816;DHT22;1923;48.154;11.536;2022-11-14T17:02:04;10.40;99.90
3816;DHT22;1923;48.154;11.536;2022-11-14T17:04:32;10.40;99.90
3816;DHT22;1923;48.154;11.536;2022-11-14T17:07:00;10.50;99.90
3816;DHT22;1923;48.154;11.536;2022-11-14T17:09:28;10.50;99.90
3816;DHT22;1923;48.154;11.536;2022-11-14T17:11:56;10.50;99.90
3816;DHT22;1923;48.154;11.536;2022-11-14T17:14:24;10.50;99.90
3816;DHT22;1923;48.154;11.536;2022-11-14T17:16:54;10.60;99.90
3816;DHT22;1923;48.154;11.536;2022-11-14T17:19:22;10.50;99.90
3816;DHT22;1923;48.154;11.536;2022-11-14T17:21:50;10.50;99.90
3816;DHT22;1923;48.154;11.536;2022-11-14T17:24:18;10.50;99.90
3816;DHT22;1923;48.154;11.536;2022-11-14T17:26:47;10.50;99.90
3816;DHT22;1923;48.154;11.536;2022-11-14T17:29:14;10.50;99.90
3816;DHT22;1923;48.154;11.536;2022-11-14T17:31:42;10.60;99.90
3816;DHT22;1923;48.154;11.536;2022-11-14T17:34:14;10.50;99.90
3816;DHT22;1923;48.154;11.536;2022-11-14T17:36:42;10.50;99.90
3816;DHT22;1923;48.154;11.536;2022-11-14T17:39:10;10.50;99.90
3816;DHT22;1923;48.154;11.536;2022-11-14T17:41:38;10.40;99.90
3816;DHT22;1923;48.154;11.536;2022-11-14T17:44:06;10.40;99.90
3816;DHT22;1923;48.154;11.536;2022-11-14T17:46:35;10.40;99.90
3816;DHT22;1923;48.154;11.536;2022-11-14T17:49:03;10.40;99.90
3816;DHT22;1923;48.154;11.536;2022-11-14T17:51:33;10.30;99.90
3816;DHT22;1923;48.154;11.536;2022-11-14T17:54:01;10.30;99.90
3816;DHT22;1923;48.154;11.536;2022-11-14T17:56:29;10.20;99.90
3816;DHT22;1923;48.154;11.536;2022-11-14T17:58:57;10.30;99.90
3816;DHT22;1923;48.154;11.536;2022-11-14T18:01:25;10.20;99.90
3816;DHT22;1923;48.154;11.536;2022-11-14T18:03:56;10.20;99.90
3816;DHT22;1923;48.154;11.536;2022-11-14T18:06:33;10.10;99.90
3816;DHT22;1923;48.154;11.536;2022-11-14T18:09:01;10.00;99.90
3816;DHT22;1923;48.154;11.536;2022-11-14T18:11:35;10.10;99.90
3816;DHT22;1923;48.154;11.536;2022-11-14T18:14:04;10.00;99.90
3816;DHT22;1923;48.154;11.536;2022-11-14T18:16:32;10.00;99.90
3816;DHT22;1923;48.154;11.536;2022-11-14T18:19:20;10.00;99.90
3816;DHT22;1923;48.154;11.536;2022-11-14T18:21:49;10.00;99.90
3816;DHT22;1923;48.154;11.536;2022-11-14T18:24:19;9.90;99.90
3816;DHT22;1923;48.154;11.536;2022-11-14T18:26:49;9.90;99.90
3816;DHT22;1923;48.154;11.536;2022-11-14T18:29:17;9.90;99.90
3816;DHT22;1923;48.154;11.536;2022-11-14T18:31:45;9.90;99.90
3816;DHT22;1923;48.154;11.536;2022-11-14T18:34:13;9.90;99.90
3816;DHT22;1923;48.154;11.536;2022-11-14T18:36:42;9.80;99.90
3816;DHT22;1923;48.154;11.536;2022-11-14T18:39:11;9.90;99.90
3816;DHT22;1923;48.154;11.536;2022-11-14T18:41:39;10.00;99.90
3816;DHT22;1923;48.154;11.536;2022-11-14T18:44:07;9.80;99.90
3816;DHT22;1923;48.154;11.536;2022-11-14T18:46:35;9.80;99.90
3816;DHT22;1923;48.154;11.536;2022-11-14T18:49:03;9.80;99.90
3816;DHT22;1923;48.154;11.536;2022-11-14T18:51:31;9.80;99.90
3816;DHT22;1923;48.154;11.536;2022-11-14T18:54:10;9.70;99.90
3816;DHT22;1923;48.154;11.536;2022-11-14T18:56:39;9.60;99.90
3816;DHT22;1923;48.154;11.536;2022-11-14T18:59:07;9.40;99.90
3816;DHT22;1923;48.154;11.536;2022-11-14T19:01:35;9.40;99.90
3816;DHT22;1923;48.154;11.536;2022-11-14T19:04:05;9.40;99.90
3816;DHT22;1923;48.154;11.536;2022-11-14T19:06:34;9.40;99.90
3816;DHT22;1923;48.154;11.536;2022-11-14T19:09:04;9.40;99.90
3816;DHT22;1923;48.154;11.536;2022-11-14T19:11:38;9.40;99.90
3816;DHT22;1923;48.154;11.536;2022-11-14T19:14:24;9.40;99.90
3816;DHT22;1923;48.154;11.536;2022-11-14T19:16:52;9.30;99.90
3816;DHT22;1923;48.154;11.536;2022-11-14T19:19:20;9.30;99.90
3816;DHT22;1923;48.154;11.536;2022-11-14T19:21:48;9.30;99.90
3816;DHT22;1923;48.154;11.536;2022-11-14T19:24:17;9.20;99.90
3816;DHT22;1923;48.154;11.536;2022-11-14T19:26:46;9.20;99.90
3816;DHT22;1923;48.154;11.536;2022-11-14T19:29:14;9.20;99.90
3816;DHT22;1923;48.154;11.536;2022-11-14T19:31:43;9.30;99.90
3816;DHT22;1923;48.154;11.536;2022-11-14T19:34:11;9.10;99.90
3816;DHT22;1923;48.154;11.536;2022-11-14T19:36:39;9.20;99.90
3816;DHT22;1923;48.154;11.536;2022-11-14T19:39:28;9.10;99.90
3816;DHT22;1923;48.154;11.536;2022-11-14T19:41:57;9.10;99.90
3816;DHT22;1923;48.154;11.536;2022-11-14T19:44:25;9.00;99.90
3816;DHT22;1923;48.154;11.536;2022-11-14T19:46:53;9.00;99.90
3816;DHT22;1923;48.154;11.536;2022-11-14T19:49:21;8.90;99.90
3816;DHT22;1923;48.154;11.536;2022-11-14T19:51:49;8.90;99.90
3816;DHT22;1923;48.154;11.536;2022-11-14T19:54:17;8.90;99.90
3816;DHT22;1923;48.154;11.536;2022-11-14T19:56:45;8.80;99.90
3816;DHT22;1923;48.154;11.536;2022-11-14T19:59:15;8.80;99.90
3816;DHT22;1923;48.154;11.536;2022-11-14T20:01:49;8.70;99.90
3816;DHT22;1923;48.154;11.536;2022-11-14T20:04:21;8.70;99.90
3816;DHT22;1923;48.154;11.536;2022-11-14T20:06:49;8.80;99.90
3816;DHT22;1923;48.154;11.536;2022-11-14T20:09:17;8.90;99.90
3816;DHT22;1923;48.154;11.536;2022-11-14T20:11:45;8.90;99.90
3816;DHT22;1923;48.154;11.536;2022-11-14T20:14:15;8.70;99.90
3816;DHT22;1923;48.154;11.536;2022-11-14T20:16:43;8.70;99.90
3816;DHT22;1923;48.154;11.536;2022-11-14T20:19:12;8.90;99.90
3816;DHT22;1923;48.154;11.536;2022-11-14T20:21:41;9.00;99.90
3816;DHT22;1923;48.154;11.536;2022-11-14T20:24:10;8.80;99.90
3816;DHT22;1923;48.154;11.536;2022-11-14T20:26:41;8.70;99.90
3816;DHT22;1923;48.154;11.536;2022-11-14T20:29:09;8.70;99.90
3816;DHT22;1923;48.154;11.536;2022-11-14T20:31:38;8.70;99.90
3816;DHT22;1923;48.154;11.536;2022-11-14T20:34:06;8.70;99.90
3816;DHT22;1923;48.154;11.536;2022-11-14T20:36:35;8.70;99.90
3816;DHT22;1923;48.154;11.536;2022-11-14T20:39:23;8.70;99.90
3816;DHT22;1923;48.154;11.536;2022-11-14T20:41:51;8.70;99.90
3816;DHT22;1923;48.154;11.536;2022-11-14T20:44:19;8.70;99.90
3816;DHT22;1923;48.154;11.536;2022-11-14T20:46:48;8.70;99.90
3816;DHT22;1923;48.154;11.536;2022-11-14T20:49:16;8.70;99.90
3816;DHT22;1923;48.154;11.536;2022-11-14T20:51:44;8.70;99.90
3816;DHT22;1923;48.154;11.536;2022-11-14T20:54:12;8.70;99.90
3816;DHT22;1923;48.154;11.536;2022-11-14T20:56:40;8.60;99.90
3816;DHT22;1923;48.154;11.536;2022-11-14T20:59:08;8.60;99.90
3816;DHT22;1923;48.154;11.536;2022-11-14T21:01:36;8.60;99.90
3816;DHT22;1923;48.154;11.536;2022-11-14T21:04:11;8.50;99.90
3816;DHT22;1923;48.154;11.536;2022-11-14T21:06:39;8.50;99.90
3816;DHT22;1923;48.154;11.536;2022-11-14T21:09:08;8.40;99.90
3816;DHT22;1923;48.154;11.536;2022-11-14T21:11:36;8.40;99.90
3816;DHT22;1923;48.154;11.536;2022-11-14T21:14:04;8.40;99.90
3816;DHT22;1923;48.154;11.536;2022-11-14T21:16:34;8.40;99.90
